Time;durP1;ratioP1;P1;durP2;ratioP2;P2;SDS_P1;SDS_P2;PMS_P1;PMS_P2;Temp;Humidity;BMP_temperature;BMP_pressure;BME280_temperature;BME280_humidity;BME280_pressure;Samples;Min_cycle;Max_cycle;Signal;HPM_P1;HPM_P2
2023/04/07 00:02:06;;;;;;;;;;;;;;;21.20;34.78;101375.06;4961594;28;19910;-74
2023/04/07 00:04:32;;;;;;;;;;;;;;;21.18;34.77;101370.84;4965240;28;19911;-73
2023/04/07 00:06:57;;;;;;;;;;;;;;;21.17;34.81;101363.75;4963963;28;19914;-73
2023/04/07 00:09:22;;;;;;;;;;;;;;;21.16;34.58;101368.31;4967513;28;19910;-73
2023/04/07 00:11:47;;;;;;;;;;;;;;;21.14;34.89;101359.50;4964542;28;20802;-73
2023/04/07 00:14:12;;;;;;;;;;;;;;;21.13;34.90;101357.00;4970189;28;19933;-72
2023/04/07 00:16:38;;;;;;;;;;;;;;;21.12;34.89;101358.03;4961182;28;19917;-73
2023/04/07 00:19:03;;;;;;;;;;;;;;;21.10;34.95;101358.19;4967716;28;19917;-73
2023/04/07 00:21:28;;;;;;;;;;;;;;;21.09;35.05;101356.50;4967980;28;19918;-73
2023/04/07 00:23:53;;;;;;;;;;;;;;;21.08;34.93;101359.38;4959111;28;19914;-73
2023/04/07 00:26:18;;;;;;;;;;;;;;;21.08;34.81;101359.38;4975671;28;19922;-73
2023/04/07 00:28:44;;;;;;;;;;;;;;;21.05;34.71;101355.16;4960988;28;20035;-73
2023/04/07 00:31:09;;;;;;;;;;;;;;;21.04;34.91;101358.88;4966577;28;19917;-72
2023/04/07 00:33:34;;;;;;;;;;;;;;;21.04;35.06;101360.75;4967646;28;19944;-73
2023/04/07 00:35:59;;;;;;;;;;;;;;;21.02;34.86;101352.78;4965282;28;20328;-73
2023/04/07 00:38:24;;;;;;;;;;;;;;;21.02;34.88;101360.03;4961579;28;19921;-73
2023/04/07 00:40:55;;;;;;;;;;;;;;;20.99;34.84;101352.31;4966224;28;19932;-73
2023/04/07 00:43:21;;;;;;;;;;;;;;;20.97;35.25;101353.28;4963720;28;19915;-73
2023/04/07 00:45:46;;;;;;;;;;;;;;;20.95;35.15;101352.63;4963527;28;20282;-73
2023/04/07 00:48:11;;;;;;;;;;;;;;;20.95;35.21;101355.34;4968295;28;19918;-73
2023/04/07 00:50:36;;;;;;;;;;;;;;;20.93;34.91;101354.66;4956394;28;19949;-73
2023/04/07 00:53:01;;;;;;;;;;;;;;;20.93;34.93;101360.06;4973588;28;19911;-73
2023/04/07 00:55:26;;;;;;;;;;;;;;;20.92;35.15;101354.84;4962927;28;19922;-73
2023/04/07 00:57:52;;;;;;;;;;;;;;;20.90;35.07;101365.81;4961955;28;19910;-73
2023/04/07 01:00:17;;;;;;;;;;;;;;;20.89;35.19;101358.72;4970890;28;19933;-73
2023/04/07 01:02:44;;;;;;;;;;;;;;;20.88;35.30;101359.72;4967644;28;20499;-73
2023/04/07 01:05:36;;;;;;;;;;;;;;;20.87;35.02;101358.06;4967957;28;19957;-73
2023/04/07 01:08:01;;;;;;;;;;;;;;;20.86;35.12;101363.63;4960582;28;19925;-73
2023/04/07 01:10:27;;;;;;;;;;;;;;;20.85;35.28;101368.19;4964215;28;19918;-72
2023/04/07 01:13:01;;;;;;;;;;;;;;;20.85;35.19;101361.94;4960840;28;19933;-72
2023/04/07 01:15:27;;;;;;;;;;;;;;;20.82;35.15;101368.53;4974324;28;19957;-73
2023/04/07 01:17:54;;;;;;;;;;;;;;;20.82;35.21;101373.94;4954700;28;19962;-73
2023/04/07 01:20:20;;;;;;;;;;;;;;;20.81;35.48;101371.38;4977941;28;19914;-73
2023/04/07 01:22:46;;;;;;;;;;;;;;;20.79;35.17;101363.47;4972747;28;19973;-73
2023/04/07 01:25:22;;;;;;;;;;;;;;;20.79;35.41;101373.44;4962376;28;19910;-72
2023/04/07 01:27:58;;;;;;;;;;;;;;;20.76;35.54;101361.09;4973166;28;19929;-72
2023/04/07 01:30:23;;;;;;;;;;;;;;;20.75;35.40;101375.63;4966960;28;19962;-72
2023/04/07 01:32:50;;;;;;;;;;;;;;;20.73;35.45;101366.84;4965021;28;19911;-73
2023/04/07 01:35:15;;;;;;;;;;;;;;;20.72;35.26;101370.56;4964434;28;19990;-72
2023/04/07 01:37:40;;;;;;;;;;;;;;;20.70;35.64;101370.72;4971342;28;19922;-72
2023/04/07 01:40:06;;;;;;;;;;;;;;;20.70;35.64;101369.88;4964626;28;19937;-73
2023/04/07 01:42:31;;;;;;;;;;;;;;;20.68;35.43;101372.75;4975062;28;19945;-73
2023/04/07 01:44:57;;;;;;;;;;;;;;;20.68;35.51;101369.19;4967945;28;19911;-73
2023/04/07 01:47:22;;;;;;;;;;;;;;;20.66;35.32;101374.78;4977675;28;19973;-72
2023/04/07 01:49:47;;;;;;;;;;;;;;;20.65;35.66;101370.41;4973707;28;19934;-72
2023/04/07 01:52:12;;;;;;;;;;;;;;;20.63;35.52;101372.41;4969965;28;19953;-73
2023/04/07 01:54:37;;;;;;;;;;;;;;;20.62;35.43;101370.72;4976362;28;19918;-73
2023/04/07 01:57:03;;;;;;;;;;;;;;;20.61;35.50;101376.31;4965399;28;20359;-73
2023/04/07 01:59:28;;;;;;;;;;;;;;;20.60;35.73;101369.19;4967137;28;19948;-74
2023/04/07 02:01:53;;;;;;;;;;;;;;;20.59;35.69;101375.63;4967123;28;19934;-73
2023/04/07 02:04:30;;;;;;;;;;;;;;;20.58;35.52;101368.53;4970906;28;19917;-73
2023/04/07 02:06:58;;;;;;;;;;;;;;;20.57;35.55;101370.41;4968688;28;19914;-72
2023/04/07 02:09:24;;;;;;;;;;;;;;;20.56;35.54;101365.13;4972950;28;19909;-73
2023/04/07 02:11:50;;;;;;;;;;;;;;;20.55;35.81;101374.28;4970068;28;19974;-73
2023/04/07 02:14:16;;;;;;;;;;;;;;;20.53;35.65;101369.03;4972234;28;19978;-72
2023/04/07 02:16:41;;;;;;;;;;;;;;;20.53;35.63;101373.59;4969476;28;19934;-73
2023/04/07 02:19:07;;;;;;;;;;;;;;;20.51;35.70;101368.34;4959591;28;19942;-73
2023/04/07 02:21:32;;;;;;;;;;;;;;;20.51;35.92;101367.50;4974969;28;19921;-72
2023/04/07 02:23:59;;;;;;;;;;;;;;;20.50;35.61;101373.94;4968733;28;19911;-70
2023/04/07 02:26:25;;;;;;;;;;;;;;;20.48;35.93;101368.72;4967048;28;19974;-73
2023/04/07 02:28:50;;;;;;;;;;;;;;;20.47;36.04;101380.47;4969415;28;20359;-73
2023/04/07 02:31:15;;;;;;;;;;;;;;;20.46;35.82;101376.09;4967923;28;19913;-73
2023/04/07 02:33:41;;;;;;;;;;;;;;;20.46;35.75;101371.53;4963938;28;19925;-73
2023/04/07 02:36:06;;;;;;;;;;;;;;;20.44;35.88;101376.25;4970845;28;19925;-73
2023/04/07 02:38:31;;;;;;;;;;;;;;;20.43;35.82;101371.00;4964135;28;19914;-73
2023/04/07 02:40:57;;;;;;;;;;;;;;;20.42;35.96;101380.13;4963529;28;19910;-72
2023/04/07 02:43:22;;;;;;;;;;;;;;;20.41;35.76;101376.59;4972159;28;19926;-73
2023/04/07 02:45:48;;;;;;;;;;;;;;;20.39;35.80;101373.22;4956905;28;19911;-72
2023/04/07 02:48:13;;;;;;;;;;;;;;;20.39;35.85;101384.03;4975960;28;20363;-72
2023/04/07 02:50:38;;;;;;;;;;;;;;;20.38;35.85;101382.31;4964734;28;20001;-72
2023/04/07 02:53:03;;;;;;;;;;;;;;;20.37;36.12;101388.75;4965636;28;20269;-72
2023/04/07 02:55:28;;;;;;;;;;;;;;;20.36;36.09;101389.75;4972234;28;19935;-72
2023/04/07 02:57:54;;;;;;;;;;;;;;;20.35;35.78;101388.06;4967471;28;20276;-72
2023/04/07 03:00:19;;;;;;;;;;;;;;;20.35;36.03;101388.06;4964452;28;19953;-72
2023/04/07 03:02:44;;;;;;;;;;;;;;;20.33;35.84;101397.34;4967820;28;19997;-72
2023/04/07 03:05:09;;;;;;;;;;;;;;;20.32;36.11;101391.09;4968423;28;19910;-73
2023/04/07 03:07:34;;;;;;;;;;;;;;;20.30;35.97;101393.09;4960066;28;19914;-73
2023/04/07 03:10:00;;;;;;;;;;;;;;;20.30;36.12;101393.09;4971564;28;19919;-71
2023/04/07 03:12:25;;;;;;;;;;;;;;;20.30;36.25;101389.56;4959640;28;19917;-72
2023/04/07 03:14:51;;;;;;;;;;;;;;;20.29;35.98;101398.69;4968136;28;19917;-72
2023/04/07 03:17:16;;;;;;;;;;;;;;;20.29;35.99;101393.28;4968102;28;19915;-71
2023/04/07 03:19:41;;;;;;;;;;;;;;;20.27;36.02;101398.03;4960496;28;20348;-74
2023/04/07 03:22:06;;;;;;;;;;;;;;;20.26;36.12;101399.84;4971487;28;19910;-72
2023/04/07 03:24:31;;;;;;;;;;;;;;;20.25;35.99;101397.31;4963728;28;19918;-72
2023/04/07 03:26:57;;;;;;;;;;;;;;;20.24;36.03;101396.47;4965160;28;19946;-72
2023/04/07 03:29:22;;;;;;;;;;;;;;;20.23;36.08;101397.50;4966928;28;19946;-72
2023/04/07 03:31:47;;;;;;;;;;;;;;;20.23;36.17;101389.41;4969761;28;19921;-72
2023/04/07 03:34:12;;;;;;;;;;;;;;;20.21;36.27;101396.81;4959270;28;19962;-70
2023/04/07 03:36:38;;;;;;;;;;;;;;;20.20;36.26;101390.56;4966139;28;19993;-71
2023/04/07 03:39:03;;;;;;;;;;;;;;;20.20;36.30;101397.81;4964119;28;19922;-72
2023/04/07 03:41:28;;;;;;;;;;;;;;;20.19;36.24;101402.38;4963549;28;19914;-72
2023/04/07 03:43:53;;;;;;;;;;;;;;;20.18;36.29;101395.31;4970939;28;19918;-72
2023/04/07 03:46:19;;;;;;;;;;;;;;;20.18;36.08;101402.56;4959259;28;19918;-71
2023/04/07 03:48:45;;;;;;;;;;;;;;;20.16;36.25;101397.31;4968544;28;19914;-72
2023/04/07 03:51:10;;;;;;;;;;;;;;;20.16;36.10;101396.47;4960642;28;19921;-72
2023/04/07 03:53:36;;;;;;;;;;;;;;;20.15;36.19;101392.91;4963521;28;19934;-72
2023/04/07 03:56:01;;;;;;;;;;;;;;;20.14;36.19;101395.78;4967523;28;19942;-71
2023/04/07 03:58:26;;;;;;;;;;;;;;;20.14;36.36;101398.50;4967562;28;19910;-72
2023/04/07 04:00:52;;;;;;;;;;;;;;;20.12;36.46;101401.34;4959659;28;19933;-73
2023/04/07 04:03:17;;;;;;;;;;;;;;;20.12;36.43;101405.91;4969919;28;19974;-72
2023/04/07 04:05:42;;;;;;;;;;;;;;;20.11;36.26;101405.06;4966645;28;19917;-72
2023/04/07 04:08:07;;;;;;;;;;;;;;;20.11;36.43;101406.91;4958314;28;19914;-72
2023/04/07 04:10:32;;;;;;;;;;;;;;;20.10;36.27;101410.63;4974058;28;19961;-72
2023/04/07 04:12:59;;;;;;;;;;;;;;;20.10;36.40;101416.88;4959005;28;19915;-71
2023/04/07 04:15:25;;;;;;;;;;;;;;;20.10;36.19;101416.88;4969613;28;19917;-72
2023/04/07 04:17:50;;;;;;;;;;;;;;;20.10;36.41;101424.13;4965349;28;19910;-72
2023/04/07 04:20:15;;;;;;;;;;;;;;;20.10;36.56;101416.03;4962556;28;19946;-72
2023/04/07 04:22:40;;;;;;;;;;;;;;;20.09;36.39;101420.59;4965234;28;19915;-72
2023/04/07 04:25:06;;;;;;;;;;;;;;;20.08;36.33;101421.56;4965089;28;19952;-72
2023/04/07 04:27:31;;;;;;;;;;;;;;;20.08;36.53;101418.03;4965478;28;20336;-71
2023/04/07 04:29:56;;;;;;;;;;;;;;;20.08;36.31;101418.88;4965676;28;19929;-71
2023/04/07 04:32:21;;;;;;;;;;;;;;;20.08;36.37;101421.56;4967909;28;19942;-74
2023/04/07 04:34:47;;;;;;;;;;;;;;;20.08;36.57;101421.56;4963342;28;19946;-70
2023/04/07 04:37:12;;;;;;;;;;;;;;;20.08;36.78;101420.72;4967559;28;19982;-70
2023/04/07 04:39:37;;;;;;;;;;;;;;;20.08;36.44;101421.56;4961417;28;19925;-69
2023/04/07 04:42:02;;;;;;;;;;;;;;;20.09;36.88;101427.81;4964224;28;19950;-71
2023/04/07 04:44:29;;;;;;;;;;;;;;;20.09;36.84;101423.28;4970471;28;20009;-72
2023/04/07 04:46:54;;;;;;;;;;;;;;;20.09;37.15;101426.00;4962688;28;19918;-72
2023/04/07 04:49:19;;;;;;;;;;;;;;;20.10;37.22;101432.22;4967922;28;19982;-70
2023/04/07 04:51:44;;;;;;;;;;;;;;;20.10;37.13;101430.38;4968331;28;19921;-71
2023/04/07 04:54:09;;;;;;;;;;;;;;;20.11;37.07;101436.59;4971009;28;19917;-71
2023/04/07 04:56:35;;;;;;;;;;;;;;;20.10;37.63;101430.38;4971682;28;19953;-70
2023/04/07 04:59:01;;;;;;;;;;;;;;;20.11;37.54;101432.06;4975607;28;19995;-69
2023/04/07 05:01:26;;;;;;;;;;;;;;;20.11;37.76;101440.16;4969516;28;20025;-72
2023/04/07 05:03:51;;;;;;;;;;;;;;;20.12;37.54;101444.53;4968389;28;20013;-71
2023/04/07 05:06:16;;;;;;;;;;;;;;;20.13;37.40;101442.69;4966160;28;20005;-71
2023/04/07 05:08:41;;;;;;;;;;;;;;;20.12;37.78;101452.63;4966553;28;19968;-71
2023/04/07 05:11:06;;;;;;;;;;;;;;;20.13;37.65;101453.47;4971010;28;20367;-72
2023/04/07 05:13:32;;;;;;;;;;;;;;;20.13;37.70;101451.63;4967414;28;19910;-72
2023/04/07 05:15:57;;;;;;;;;;;;;;;20.14;37.63;101447.09;4970278;28;19914;-70
2023/04/07 05:18:22;;;;;;;;;;;;;;;20.14;37.83;101447.09;4969807;28;19917;-68
2023/04/07 05:20:47;;;;;;;;;;;;;;;20.13;37.97;101457.00;4968666;28;19988;-68
2023/04/07 05:23:15;;;;;;;;;;;;;;;20.13;37.64;101446.22;4970897;28;19917;-68
2023/04/07 05:25:40;;;;;;;;;;;;;;;20.13;37.87;101456.19;4971187;28;20271;-68
2023/04/07 05:28:05;;;;;;;;;;;;;;;20.13;37.71;101454.31;4967255;28;20381;-69
2023/04/07 05:30:31;;;;;;;;;;;;;;;20.13;37.70;101451.63;4967039;28;20463;-68
2023/04/07 05:32:56;;;;;;;;;;;;;;;20.14;37.87;101453.34;4970137;28;19933;-69
2023/04/07 05:35:21;;;;;;;;;;;;;;;20.14;38.03;101455.19;4965085;28;19914;-67
2023/04/07 05:37:46;;;;;;;;;;;;;;;20.15;37.96;101456.88;4973046;28;19918;-68
2023/04/07 05:40:11;;;;;;;;;;;;;;;20.16;37.81;101463.97;4968476;28;20364;-68
2023/04/07 05:42:37;;;;;;;;;;;;;;;20.16;37.97;101463.97;4969337;28;19934;-69
2023/04/07 05:45:02;;;;;;;;;;;;;;;20.16;37.81;101461.25;4973812;28;19948;-69
2023/04/07 05:47:27;;;;;;;;;;;;;;;20.17;37.98;101468.34;4970890;28;20001;-70
2023/04/07 05:49:53;;;;;;;;;;;;;;;20.17;37.96;101466.47;4972638;28;20061;-68
2023/04/07 05:52:18;;;;;;;;;;;;;;;20.18;37.94;101465.50;4968086;28;19918;-69
2023/04/07 05:54:43;;;;;;;;;;;;;;;20.18;37.79;101462.78;4971631;28;20420;-69
2023/04/07 05:57:08;;;;;;;;;;;;;;;20.19;37.95;101466.34;4959187;28;19910;-68
2023/04/07 05:59:34;;;;;;;;;;;;;;;20.20;37.80;101478.81;4971260;28;19933;-70
2023/04/07 06:01:59;;;;;;;;;;;;;;;20.19;37.95;101469.03;4963821;28;19937;-69
2023/04/07 06:04:24;;;;;;;;;;;;;;;20.20;37.82;101476.13;4970929;28;19921;-70
2023/04/07 06:06:51;;;;;;;;;;;;;;;20.19;37.72;101477.97;4969652;28;19922;-71
2023/04/07 06:09:16;;;;;;;;;;;;;;;20.20;37.93;101482.38;4964911;28;19969;-69
2023/04/07 06:11:41;;;;;;;;;;;;;;;20.20;37.74;101485.06;4974264;28;19914;-70
2023/04/07 06:14:06;;;;;;;;;;;;;;;20.21;37.85;101489.44;4963198;28;19918;-69
2023/04/07 06:16:32;;;;;;;;;;;;;;;20.21;37.56;101484.03;4966522;28;19997;-64
2023/04/07 06:18:57;;;;;;;;;;;;;;;20.22;37.62;101480.34;4969305;28;19922;-69
2023/04/07 06:21:22;;;;;;;;;;;;;;;20.23;37.59;101486.59;4971043;28;19914;-73
2023/04/07 06:23:48;;;;;;;;;;;;;;;20.23;37.60;101494.69;4960673;28;19910;-73
2023/04/07 06:26:13;;;;;;;;;;;;;;;20.23;37.66;101489.31;4972813;28;19978;-73
2023/04/07 06:28:38;;;;;;;;;;;;;;;20.22;37.29;101496.56;4965766;28;19914;-73
2023/04/07 06:31:03;;;;;;;;;;;;;;;20.23;37.54;101498.25;4962923;28;19920;-73
2023/04/07 06:33:29;;;;;;;;;;;;;;;20.24;37.50;101501.78;4969947;28;19919;-73
2023/04/07 06:35:55;;;;;;;;;;;;;;;20.24;37.32;101501.78;4957914;28;19918;-72
2023/04/07 06:38:20;;;;;;;;;;;;;;;20.24;37.58;101499.09;4972322;28;19914;-70
2023/04/07 06:40:45;;;;;;;;;;;;;;;20.25;37.67;101508.03;4969728;28;20029;-73
2023/04/07 06:43:10;;;;;;;;;;;;;;;20.23;37.63;101509.06;4970067;28;19914;-73
2023/04/07 06:45:36;;;;;;;;;;;;;;;20.25;37.37;101508.88;4971591;28;19910;-72
2023/04/07 06:48:01;;;;;;;;;;;;;;;20.25;37.34;101516.97;4969568;28;19985;-72
2023/04/07 06:50:26;;;;;;;;;;;;;;;20.26;37.28;101518.66;4961558;28;19917;-72
2023/04/07 06:52:51;;;;;;;;;;;;;;;20.27;37.45;101519.53;4968283;28;19914;-73
2023/04/07 06:55:16;;;;;;;;;;;;;;;20.27;37.53;101522.22;4967812;28;20016;-72
2023/04/07 06:57:42;;;;;;;;;;;;;;;20.28;37.30;101524.75;4957652;28;20252;-72
2023/04/07 07:00:09;;;;;;;;;;;;;;;20.28;37.43;101529.31;4975621;28;19910;-73
2023/04/07 07:02:34;;;;;;;;;;;;;;;20.28;37.50;101527.47;4964713;28;19937;-73
2023/04/07 07:04:59;;;;;;;;;;;;;;;20.28;37.44;101524.75;4969711;28;19910;-74
2023/04/07 07:07:24;;;;;;;;;;;;;;;20.28;37.18;101527.47;4967295;28;19921;-72
2023/04/07 07:09:50;;;;;;;;;;;;;;;20.29;37.48;101531.00;4962655;28;19944;-74
2023/04/07 07:12:16;;;;;;;;;;;;;;;20.30;37.17;101532.69;4968738;28;19921;-73
2023/04/07 07:14:42;;;;;;;;;;;;;;;20.29;37.25;101534.53;4960182;28;19923;-72
2023/04/07 07:17:07;;;;;;;;;;;;;;;20.30;37.10;101530.81;4962127;28;19918;-73
2023/04/07 07:19:32;;;;;;;;;;;;;;;20.31;37.32;101537.09;4963991;28;19977;-73
2023/04/07 07:21:57;;;;;;;;;;;;;;;20.31;37.33;101527.13;4970414;28;19962;-73
2023/04/07 07:24:22;;;;;;;;;;;;;;;20.32;37.31;101536.94;4956692;28;19946;-71
2023/04/07 07:26:47;;;;;;;;;;;;;;;20.32;37.12;101536.94;4965040;28;19919;-73
2023/04/07 07:29:12;;;;;;;;;;;;;;;20.35;37.28;101543.88;4963495;28;19914;-74
2023/04/07 07:31:38;;;;;;;;;;;;;;;20.34;37.33;101543.00;4965673;28;19914;-71
2023/04/07 07:34:03;;;;;;;;;;;;;;;20.35;37.17;101539.31;4970603;28;19910;-73
2023/04/07 07:36:28;;;;;;;;;;;;;;;20.35;37.18;101544.72;4955776;28;20013;-73
2023/04/07 07:38:53;;;;;;;;;;;;;;;19.86;37.46;101474.28;4971548;28;20386;-73
2023/04/07 07:41:19;;;;;;;;;;;;;;;20.38;37.10;101554.31;4963339;28;19918;-74
2023/04/07 07:43:45;;;;;;;;;;;;;;;20.40;37.13;101560.44;4965574;28;19917;-74
2023/04/07 07:46:10;;;;;;;;;;;;;;;20.40;37.29;101550.47;4964490;28;19919;-72
2023/04/07 07:48:35;;;;;;;;;;;;;;;20.41;37.31;101562.13;4966157;28;19914;-74
2023/04/07 07:51:00;;;;;;;;;;;;;;;20.42;37.12;101566.50;4959756;28;19910;-73
2023/04/07 07:53:25;;;;;;;;;;;;;;;20.42;37.15;101559.25;4970442;28;19917;-74
2023/04/07 07:55:51;;;;;;;;;;;;;;;20.43;37.19;101562.78;4964226;28;19918;-74
2023/04/07 07:58:16;;;;;;;;;;;;;;;20.45;37.08;101563.47;4963563;28;19933;-73
2023/04/07 08:00:41;;;;;;;;;;;;;;;20.44;37.33;101569.91;4971654;28;19915;-74
2023/04/07 08:03:07;;;;;;;;;;;;;;;20.44;37.19;101578.84;4967162;28;19973;-73
2023/04/07 08:05:32;;;;;;;;;;;;;;;20.45;37.29;101575.13;4969484;28;19918;-74
2023/04/07 08:07:57;;;;;;;;;;;;;;;20.45;37.43;101585.94;4968344;28;19918;-70
2023/04/07 08:10:23;;;;;;;;;;;;;;;20.46;37.52;101584.06;4971851;28;19910;-75
2023/04/07 08:12:49;;;;;;;;;;;;;;;20.47;37.37;101589.34;4967511;28;19918;-73
2023/04/07 08:15:14;;;;;;;;;;;;;;;20.47;37.30;101589.34;4967686;28;19911;-74
2023/04/07 08:17:40;;;;;;;;;;;;;;;20.48;37.46;101587.50;4966174;28;19910;-72
2023/04/07 08:20:06;;;;;;;;;;;;;;;20.47;37.84;101583.94;4968880;28;19918;-72
2023/04/07 08:22:31;;;;;;;;;;;;;;;20.50;37.85;101587.34;4969158;28;20020;-72
2023/04/07 08:24:56;;;;;;;;;;;;;;;20.51;37.55;101599.81;4956009;28;19974;-73
2023/04/07 08:27:21;;;;;;;;;;;;;;;20.50;37.78;101593.56;4976360;28;19941;-74
2023/04/07 08:30:06;;;;;;;;;;;;;;;20.52;37.77;101599.69;4957008;28;19982;-76
2023/04/07 08:32:43;;;;;;;;;;;;;;;20.53;37.70;101600.53;4966243;28;19917;-76
2023/04/07 08:35:08;;;;;;;;;;;;;;;20.53;37.58;101608.63;4974585;28;19914;-75
2023/04/07 08:37:33;;;;;;;;;;;;;;;20.54;37.85;101610.31;4962975;28;19986;-74
2023/04/07 08:39:59;;;;;;;;;;;;;;;20.56;37.68;101613.69;4964262;28;19917;-73
2023/04/07 08:42:26;;;;;;;;;;;;;;;20.57;37.81;101612.69;4963232;28;20703;-75
2023/04/07 08:44:51;;;;;;;;;;;;;;;20.57;37.72;101610.84;4961015;28;19975;-73
2023/04/07 08:47:16;;;;;;;;;;;;;;;20.58;37.63;101626.03;4968455;28;19942;-73
2023/04/07 08:49:42;;;;;;;;;;;;;;;20.58;37.79;101619.78;4968184;28;19981;-74
2023/04/07 08:52:07;;;;;;;;;;;;;;;20.59;37.62;101621.47;4964567;28;19918;-74
2023/04/07 08:54:33;;;;;;;;;;;;;;;20.11;37.59;101545.44;4974948;28;19910;-74
2023/04/07 08:56:59;;;;;;;;;;;;;;;20.61;37.53;101619.47;4964562;28;19919;-74
2023/04/07 08:59:27;;;;;;;;;;;;;;;20.62;37.66;101623.84;4959874;28;19918;-72
2023/04/07 09:01:52;;;;;;;;;;;;;;;20.64;37.67;101621.81;4969111;28;19919;-72
2023/04/07 09:04:17;;;;;;;;;;;;;;;20.66;37.52;101633.34;4967885;28;19918;-72
2023/04/07 09:06:42;;;;;;;;;;;;;;;20.67;37.39;101627.75;4964320;28;20013;-73
2023/04/07 09:09:08;;;;;;;;;;;;;;;20.68;37.64;101636.69;4966207;28;19948;-73
2023/04/07 09:11:34;;;;;;;;;;;;;;;20.69;37.51;101631.16;4968052;28;20376;-73
2023/04/07 09:14:00;;;;;;;;;;;;;;;20.71;37.55;101639.09;4961357;28;19911;-73
2023/04/07 09:16:26;;;;;;;;;;;;;;;20.74;37.36;101641.47;4974272;28;19925;-72
2023/04/07 09:18:51;;;;;;;;;;;;;;;20.75;37.38;101639.63;4965301;28;19914;-72
2023/04/07 09:21:16;;;;;;;;;;;;;;;20.78;37.34;101644.72;4969363;28;19920;-71
2023/04/07 09:23:42;;;;;;;;;;;;;;;20.79;37.39;101639.13;4966414;28;19921;-73
2023/04/07 09:26:23;;;;;;;;;;;;;;;20.81;37.38;101634.38;4960249;28;19922;-72
2023/04/07 09:28:49;;;;;;;;;;;;;;;20.83;37.49;101637.78;4967630;28;19921;-72
2023/04/07 09:31:15;;;;;;;;;;;;;;;20.86;37.17;101642.03;4959971;28;19914;-71
2023/04/07 09:33:40;;;;;;;;;;;;;;;20.90;37.10;101638.00;4968407;28;19925;-73
2023/04/07 09:36:06;;;;;;;;;;;;;;;20.91;36.96;101636.97;4961251;28;19924;-74
2023/04/07 09:38:31;;;;;;;;;;;;;;;20.92;37.21;101642.22;4968050;28;19920;-73
2023/04/07 09:41:04;;;;;;;;;;;;;;;20.94;36.98;101642.03;4963362;28;19941;-74
2023/04/07 09:43:29;;;;;;;;;;;;;;;20.96;36.91;101640.88;4973291;28;19954;-74
2023/04/07 09:46:05;;;;;;;;;;;;;;;20.99;37.28;101647.81;4966147;28;19925;-69
2023/04/07 09:48:31;;;;;;;;;;;;;;;21.01;37.00;101643.06;4971443;28;19949;-68
2023/04/07 09:51:03;;;;;;;;;;;;;;;21.02;37.25;101644.75;4965601;28;19911;-68
2023/04/07 09:53:42;;;;;;;;;;;;;;;21.05;37.32;101649.00;4965549;28;19949;-69
2023/04/07 09:56:08;;;;;;;;;;;;;;;21.08;37.43;101654.09;4974680;28;19941;-68
2023/04/07 09:58:33;;;;;;;;;;;;;;;21.10;37.25;101644.78;4964178;28;19918;-69
2023/04/07 10:00:59;;;;;;;;;;;;;;;21.12;37.26;101653.59;4971755;28;19921;-69
2023/04/07 10:03:24;;;;;;;;;;;;;;;21.14;37.15;101648.84;4966882;28;19915;-70
2023/04/07 10:05:49;;;;;;;;;;;;;;;21.18;37.49;101646.66;4970624;28;19946;-68
2023/04/07 10:08:16;;;;;;;;;;;;;;;21.19;37.38;101660.00;4963955;28;19966;-69
2023/04/07 10:10:42;;;;;;;;;;;;;;;21.21;37.49;101655.31;4967560;28;19993;-69
2023/04/07 10:13:07;;;;;;;;;;;;;;;21.23;37.53;101655.13;4967526;28;20457;-69
2023/04/07 10:15:33;;;;;;;;;;;;;;;21.26;37.59;101662.91;4967560;28;19937;-70
2023/04/07 10:17:58;;;;;;;;;;;;;;;21.27;37.76;101655.66;4969007;28;19917;-70
2023/04/07 10:20:23;;;;;;;;;;;;;;;21.29;38.08;101656.34;4958549;28;19920;-68
2023/04/07 10:22:50;;;;;;;;;;;;;;;21.27;38.46;101664.59;4972525;28;19917;-71
2023/04/07 10:25:15;;;;;;;;;;;;;;;21.27;38.06;101664.59;4965283;28;19914;-70
2023/04/07 10:27:48;;;;;;;;;;;;;;;21.30;38.60;101668.84;4967819;28;19968;-75
2023/04/07 10:30:14;;;;;;;;;;;;;;;21.30;38.50;101666.97;4974560;28;20406;-70
2023/04/07 10:32:47;;;;;;;;;;;;;;;21.30;38.64;101672.38;4963622;28;19919;-70
2023/04/07 10:35:12;;;;;;;;;;;;;;;21.28;38.76;101677.13;4966209;28;19929;-72
2023/04/07 10:37:37;;;;;;;;;;;;;;;21.25;38.84;101674.75;4968801;28;19958;-72
2023/04/07 10:40:18;;;;;;;;;;;;;;;21.22;38.59;101677.78;4972470;28;20300;-71
2023/04/07 10:42:44;;;;;;;;;;;;;;;21.19;38.73;101678.09;4970522;28;19942;-71
2023/04/07 10:45:09;;;;;;;;;;;;;;;21.17;38.72;101686.38;4966907;28;20435;-71
2023/04/07 10:47:37;;;;;;;;;;;;;;;21.16;38.91;101683.88;4960164;28;19957;-71
2023/04/07 10:50:11;;;;;;;;;;;;;;;21.13;39.05;101678.78;4974248;28;19941;-72
2023/04/07 10:52:37;;;;;;;;;;;;;;;21.12;39.19;101685.19;4958347;28;19950;-71
2023/04/07 10:55:21;;;;;;;;;;;;;;;21.09;39.01;101685.53;4967598;28;19930;-71
2023/04/07 10:58:13;;;;;;;;;;;;;;;21.06;39.10;101683.97;4968425;28;19937;-73
2023/04/07 11:00:38;;;;;;;;;;;;;;;21.04;39.21;101683.31;4966071;28;19938;-72
2023/04/07 11:03:12;;;;;;;;;;;;;;;21.05;39.34;101686.84;4970294;28;20384;-73
2023/04/07 11:05:41;;;;;;;;;;;;;;;21.03;39.25;101686.19;4969038;28;19922;-72
2023/04/07 11:08:06;;;;;;;;;;;;;;;21.02;39.39;101693.44;4963903;28;19957;-72
2023/04/07 11:10:32;;;;;;;;;;;;;;;21.02;39.61;101693.44;4970636;28;19918;-72
2023/04/07 11:12:58;;;;;;;;;;;;;;;21.01;39.50;101702.56;4964775;28;19934;-71
2023/04/07 11:15:23;;;;;;;;;;;;;;;21.02;39.80;101703.41;4957968;28;19941;-71
2023/04/07 11:18:08;;;;;;;;;;;;;;;21.03;39.64;101705.97;4970981;28;19977;-71
2023/04/07 11:20:52;;;;;;;;;;;;;;;21.08;39.66;101702.75;4965937;28;19925;-71
2023/04/07 11:23:18;;;;;;;;;;;;;;;21.13;39.67;101709.38;4973081;28;20359;-71
2023/04/07 11:25:44;;;;;;;;;;;;;;;21.14;39.40;101707.50;4967822;28;19917;-71
2023/04/07 11:28:11;;;;;;;;;;;;;;;21.17;39.01;101708.03;4967051;28;19918;-71
2023/04/07 11:30:36;;;;;;;;;;;;;;;21.20;39.37;101704.16;4965487;28;19917;-71
2023/04/07 11:33:01;;;;;;;;;;;;;;;21.23;39.33;101709.22;4965559;28;19914;-70
2023/04/07 11:35:27;;;;;;;;;;;;;;;21.24;39.26;101716.34;4962852;28;20006;-69
2023/04/07 11:37:58;;;;;;;;;;;;;;;21.26;38.93;101713.47;4969374;28;19977;-70
2023/04/07 11:40:31;;;;;;;;;;;;;;;21.33;39.18;101718.09;4967291;28;19925;-71
2023/04/07 11:42:56;;;;;;;;;;;;;;;21.40;38.65;101713.69;4967966;28;19918;-68
2023/04/07 11:45:21;;;;;;;;;;;;;;;21.43;39.16;101718.78;4966216;28;19918;-68
2023/04/07 11:47:46;;;;;;;;;;;;;;;21.43;39.48;101721.47;4963461;28;19914;-68
2023/04/07 11:50:11;;;;;;;;;;;;;;;21.43;39.41;101721.47;4969817;28;19914;-68
2023/04/07 11:52:43;;;;;;;;;;;;;;;21.45;39.16;101727.59;4962687;28;19917;-69
2023/04/07 11:55:23;;;;;;;;;;;;;;;21.51;39.00;101728.78;4967045;28;19961;-70
2023/04/07 11:57:50;;;;;;;;;;;;;;;21.56;38.73;101720.16;4968787;28;20319;-70
2023/04/07 12:00:15;;;;;;;;;;;;;;;21.51;39.45;101722.50;4966428;28;19941;-71
2023/04/07 12:02:40;;;;;;;;;;;;;;;21.46;39.32;101733.84;4961123;28;19914;-70
2023/04/07 12:05:06;;;;;;;;;;;;;;;21.42;39.25;101746.84;4968383;28;19910;-70
2023/04/07 12:07:32;;;;;;;;;;;;;;;21.40;39.02;101748.84;4967473;28;19972;-70
2023/04/07 12:09:57;;;;;;;;;;;;;;;21.35;39.21;101748.50;4963943;28;19933;-70
2023/04/07 12:12:27;;;;;;;;;;;;;;;21.28;39.30;101746.59;4972251;28;19914;-70
2023/04/07 12:14:53;;;;;;;;;;;;;;;21.23;39.33;101752.50;4956262;28;19987;-70
2023/04/07 12:17:22;;;;;;;;;;;;;;;21.18;39.29;101752.97;4973168;28;19988;-70
2023/04/07 12:19:47;;;;;;;;;;;;;;;21.15;39.04;101747.91;4963952;28;19977;-70
2023/04/07 12:22:12;;;;;;;;;;;;;;;21.12;39.29;101753.66;4961178;28;19922;-70
2023/04/07 12:24:37;;;;;;;;;;;;;;;21.12;39.28;101761.75;4969948;28;20006;-70
2023/04/07 12:27:03;;;;;;;;;;;;;;;21.14;39.05;101758.88;4962672;28;19922;-71
2023/04/07 12:29:28;;;;;;;;;;;;;;;21.14;39.02;101761.59;4965214;28;19914;-71
2023/04/07 12:31:55;;;;;;;;;;;;;;;21.13;38.97;101763.44;4967801;28;19918;-71